sensor_id;sensor_type;location;lat;lon;timestamp;pressure;altitude;pressure_sealevel;temperature
64904;BMP280;51401;48.882;12.598;2022-11-15T00:00:23;98725.25;;;3.94
64904;BMP280;51401;48.882;12.598;2022-11-15T00:02:48;98716.50;;;3.95
64904;BMP280;51401;48.882;12.598;2022-11-15T00:05:14;98721.47;;;3.92
64904;BMP280;51401;48.882;12.598;2022-11-15T00:07:39;98724.63;;;3.89
64904;BMP280;51401;48.882;12.598;2022-11-15T00:10:05;98722.34;;;3.87
64904;BMP280;51401;48.882;12.598;2022-11-15T00:12:30;98721.00;;;3.82
64904;BMP280;51401;48.882;12.598;2022-11-15T00:14:55;98728.41;;;3.83
64904;BMP280;51401;48.882;12.598;2022-11-15T00:17:21;98734.13;;;3.80
64904;BMP280;51401;48.882;12.598;2022-11-15T00:19:46;98731.25;;;3.82
64904;BMP280;51401;48.882;12.598;2022-11-15T00:22:11;98740.16;;;3.84
64904;BMP280;51401;48.882;12.598;2022-11-15T00:24:36;98742.09;;;3.79
64904;BMP280;51401;48.882;12.598;2022-11-15T00:27:02;98740.44;;;3.74
64904;BMP280;51401;48.882;12.598;2022-11-15T00:29:27;98740.25;;;3.71
64904;BMP280;51401;48.882;12.598;2022-11-15T00:31:53;98746.41;;;3.61
64904;BMP280;51401;48.882;12.598;2022-11-15T00:34:18;98777.47;;;3.60
64904;BMP280;51401;48.882;12.598;2022-11-15T00:36:43;98774.00;;;3.56
64904;BMP280;51401;48.882;12.598;2022-11-15T00:39:09;98781.22;;;3.54
64904;BMP280;51401;48.882;12.598;2022-11-15T00:41:34;98785.56;;;3.53
64904;BMP280;51401;48.882;12.598;2022-11-15T00:43:59;98777.53;;;3.47
64904;BMP280;51401;48.882;12.598;2022-11-15T00:46:25;98783.88;;;3.49
64904;BMP280;51401;48.882;12.598;2022-11-15T00:48:50;98772.41;;;3.47
64904;BMP280;51401;48.882;12.598;2022-11-15T00:51:15;98778.75;;;3.49
64904;BMP280;51401;48.882;12.598;2022-11-15T00:53:41;98774.03;;;3.43
64904;BMP280;51401;48.882;12.598;2022-11-15T00:56:06;98779.34;;;3.46
64904;BMP280;51401;48.882;12.598;2022-11-15T00:58:31;98774.78;;;3.43
64904;BMP280;51401;48.882;12.598;2022-11-15T01:01:09;98765.75;;;3.37
64904;BMP280;51401;48.882;12.598;2022-11-15T01:03:35;98768.44;;;3.32
64904;BMP280;51401;48.882;12.598;2022-11-15T01:06:00;98763.53;;;3.22
64904;BMP280;51401;48.882;12.598;2022-11-15T01:08:26;98765.91;;;3.19
64904;BMP280;51401;48.882;12.598;2022-11-15T01:10:51;98757.16;;;3.12
64904;BMP280;51401;48.882;12.598;2022-11-15T01:13:16;98753.19;;;3.06
64904;BMP280;51401;48.882;12.598;2022-11-15T01:15:42;98751.69;;;3.05
64904;BMP280;51401;48.882;12.598;2022-11-15T01:18:08;98749.94;;;3.14
64904;BMP280;51401;48.882;12.598;2022-11-15T01:20:33;98753.28;;;3.22
64904;BMP280;51401;48.882;12.598;2022-11-15T01:22:58;98756.78;;;3.26
64904;BMP280;51401;48.882;12.598;2022-11-15T01:25:24;98761.59;;;3.28
64904;BMP280;51401;48.882;12.598;2022-11-15T01:27:49;98758.75;;;3.29
64904;BMP280;51401;48.882;12.598;2022-11-15T01:30:15;98768.53;;;3.27
64904;BMP280;51401;48.882;12.598;2022-11-15T01:32:40;98767.50;;;3.28
64904;BMP280;51401;48.882;12.598;2022-11-15T01:35:05;98775.19;;;3.28
64904;BMP280;51401;48.882;12.598;2022-11-15T01:37:31;98776.41;;;3.31
64904;BMP280;51401;48.882;12.598;2022-11-15T01:39:56;98783.03;;;3.32
64904;BMP280;51401;48.882;12.598;2022-11-15T01:42:21;98789.88;;;3.36
64904;BMP280;51401;48.882;12.598;2022-11-15T01:44:48;98794.22;;;3.36
64904;BMP280;51401;48.882;12.598;2022-11-15T01:47:23;98790.63;;;3.37
64904;BMP280;51401;48.882;12.598;2022-11-15T01:49:54;98801.03;;;3.40
64904;BMP280;51401;48.882;12.598;2022-11-15T01:52:20;98804.94;;;3.38
64904;BMP280;51401;48.882;12.598;2022-11-15T01:54:49;98807.03;;;3.36
64904;BMP280;51401;48.882;12.598;2022-11-15T01:57:16;98806.91;;;3.41
64904;BMP280;51401;48.882;12.598;2022-11-15T01:59:43;98815.34;;;3.41
64904;BMP280;51401;48.882;12.598;2022-11-15T02:02:09;98827.25;;;3.37
64904;BMP280;51401;48.882;12.598;2022-11-15T02:04:43;98826.78;;;3.35
64904;BMP280;51401;48.882;12.598;2022-11-15T02:07:10;98833.13;;;3.38
64904;BMP280;51401;48.882;12.598;2022-11-15T02:09:37;98842.75;;;3.32
64904;BMP280;51401;48.882;12.598;2022-11-15T02:12:03;98858.13;;;3.32
64904;BMP280;51401;48.882;12.598;2022-11-15T02:14:29;98856.31;;;3.33
64904;BMP280;51401;48.882;12.598;2022-11-15T02:22:57;98874.66;;;3.26
64904;BMP280;51401;48.882;12.598;2022-11-15T02:31:34;98898.66;;;3.30
64904;BMP280;51401;48.882;12.598;2022-11-15T02:37:20;98900.81;;;3.23
64904;BMP280;51401;48.882;12.598;2022-11-15T02:42:33;98889.41;;;3.08
64904;BMP280;51401;48.882;12.598;2022-11-15T02:45:31;98889.78;;;3.01
64904;BMP280;51401;48.882;12.598;2022-11-15T02:47:58;98893.38;;;3.00
64904;BMP280;51401;48.882;12.598;2022-11-15T02:50:26;98891.78;;;3.04
64904;BMP280;51401;48.882;12.598;2022-11-15T02:52:53;98894.34;;;3.04
64904;BMP280;51401;48.882;12.598;2022-11-15T02:55:28;98888.53;;;3.12
64904;BMP280;51401;48.882;12.598;2022-11-15T03:00:55;98878.41;;;2.94
64904;BMP280;51401;48.882;12.598;2022-11-15T03:03:52;98890.34;;;2.98
64904;BMP280;51401;48.882;12.598;2022-11-15T03:06:35;98880.22;;;2.93
64904;BMP280;51401;48.882;12.598;2022-11-15T03:09:13;98874.16;;;2.89
64904;BMP280;51401;48.882;12.598;2022-11-15T03:11:50;98879.94;;;2.95
64904;BMP280;51401;48.882;12.598;2022-11-15T03:14:25;98907.44;;;3.03
64904;BMP280;51401;48.882;12.598;2022-11-15T03:19:45;98913.50;;;2.93
64904;BMP280;51401;48.882;12.598;2022-11-15T03:22:16;98929.75;;;2.89
64904;BMP280;51401;48.882;12.598;2022-11-15T03:24:43;98929.84;;;2.84
64904;BMP280;51401;48.882;12.598;2022-11-15T03:27:12;98929.25;;;2.87
64904;BMP280;51401;48.882;12.598;2022-11-15T03:29:44;98936.03;;;2.83
64904;BMP280;51401;48.882;12.598;2022-11-15T03:32:15;98940.72;;;2.89
64904;BMP280;51401;48.882;12.598;2022-11-15T03:34:45;98942.75;;;2.79
64904;BMP280;51401;48.882;12.598;2022-11-15T03:37:13;98946.03;;;2.66
64904;BMP280;51401;48.882;12.598;2022-11-15T03:39:39;98945.38;;;2.61
64904;BMP280;51401;48.882;12.598;2022-11-15T03:42:27;98950.50;;;2.61
64904;BMP280;51401;48.882;12.598;2022-11-15T03:45:03;98953.34;;;2.59
64904;BMP280;51401;48.882;12.598;2022-11-15T03:47:36;98963.41;;;2.82
64904;BMP280;51401;48.882;12.598;2022-11-15T03:50:15;98978.28;;;2.94
64904;BMP280;51401;48.882;12.598;2022-11-15T03:52:42;98979.25;;;3.11
64904;BMP280;51401;48.882;12.598;2022-11-15T03:55:11;98987.00;;;3.19
64904;BMP280;51401;48.882;12.598;2022-11-15T03:57:37;99002.47;;;3.15
64904;BMP280;51401;48.882;12.598;2022-11-15T04:00:03;99007.41;;;3.24
64904;BMP280;51401;48.882;12.598;2022-11-15T04:02:29;99028.47;;;3.21
64904;BMP280;51401;48.882;12.598;2022-11-15T04:04:54;99027.78;;;3.16
64904;BMP280;51401;48.882;12.598;2022-11-15T04:07:20;99031.34;;;3.07
64904;BMP280;51401;48.882;12.598;2022-11-15T04:09:45;99031.03;;;2.95
64904;BMP280;51401;48.882;12.598;2022-11-15T04:12:33;99033.31;;;2.83
64904;BMP280;51401;48.882;12.598;2022-11-15T04:15:01;99038.03;;;2.76
64904;BMP280;51401;48.882;12.598;2022-11-15T04:17:45;99038.47;;;2.65
64904;BMP280;51401;48.882;12.598;2022-11-15T04:23:01;99034.88;;;2.52
64904;BMP280;51401;48.882;12.598;2022-11-15T04:25:49;99041.09;;;2.47
64904;BMP280;51401;48.882;12.598;2022-11-15T04:28:15;99033.50;;;2.42
64904;BMP280;51401;48.882;12.598;2022-11-15T04:30:40;99032.34;;;2.34
64904;BMP280;51401;48.882;12.598;2022-11-15T04:33:05;99032.97;;;2.26
64904;BMP280;51401;48.882;12.598;2022-11-15T04:35:31;99037.31;;;2.26
64904;BMP280;51401;48.882;12.598;2022-11-15T04:37:57;99031.72;;;2.24
64904;BMP280;51401;48.882;12.598;2022-11-15T04:40:23;99041.41;;;2.27
64904;BMP280;51401;48.882;12.598;2022-11-15T04:42:48;99038.75;;;2.32
64904;BMP280;51401;48.882;12.598;2022-11-15T04:45:14;99041.78;;;2.34
64904;BMP280;51401;48.882;12.598;2022-11-15T04:47:39;99040.78;;;2.35
64904;BMP280;51401;48.882;12.598;2022-11-15T04:50:05;99055.06;;;2.36
64904;BMP280;51401;48.882;12.598;2022-11-15T04:52:30;99064.34;;;2.32
64904;BMP280;51401;48.882;12.598;2022-11-15T04:54:55;99055.44;;;2.29
64904;BMP280;51401;48.882;12.598;2022-11-15T04:57:21;99064.44;;;2.27
64904;BMP280;51401;48.882;12.598;2022-11-15T04:59:46;99070.41;;;2.22
64904;BMP280;51401;48.882;12.598;2022-11-15T05:02:11;99066.94;;;2.13
64904;BMP280;51401;48.882;12.598;2022-11-15T05:04:36;99069.50;;;2.13
64904;BMP280;51401;48.882;12.598;2022-11-15T05:07:02;99066.19;;;2.13
64904;BMP280;51401;48.882;12.598;2022-11-15T05:09:29;99063.41;;;2.10
64904;BMP280;51401;48.882;12.598;2022-11-15T05:11:54;99061.19;;;2.03
64904;BMP280;51401;48.882;12.598;2022-11-15T05:14:19;99055.13;;;1.99
64904;BMP280;51401;48.882;12.598;2022-11-15T05:16:45;99048.47;;;1.98
64904;BMP280;51401;48.882;12.598;2022-11-15T05:19:10;99051.25;;;2.02
64904;BMP280;51401;48.882;12.598;2022-11-15T05:21:36;99049.88;;;2.09
64904;BMP280;51401;48.882;12.598;2022-11-15T05:24:02;99051.75;;;2.35
64904;BMP280;51401;48.882;12.598;2022-11-15T05:26:27;99055.84;;;2.36
64904;BMP280;51401;48.882;12.598;2022-11-15T05:28:57;99070.16;;;2.37
64904;BMP280;51401;48.882;12.598;2022-11-15T05:31:23;99070.72;;;2.34
64904;BMP280;51401;48.882;12.598;2022-11-15T05:33:50;99068.50;;;2.28
64904;BMP280;51401;48.882;12.598;2022-11-15T05:36:42;99063.06;;;2.16
64904;BMP280;51401;48.882;12.598;2022-11-15T05:39:07;99072.31;;;2.12
64904;BMP280;51401;48.882;12.598;2022-11-15T05:41:37;99065.13;;;2.14
64904;BMP280;51401;48.882;12.598;2022-11-15T05:44:07;99072.53;;;2.15
64904;BMP280;51401;48.882;12.598;2022-11-15T05:46:33;99072.31;;;2.12
64904;BMP280;51401;48.882;12.598;2022-11-15T05:48:59;99067.28;;;2.07
64904;BMP280;51401;48.882;12.598;2022-11-15T05:51:27;99066.84;;;2.00
64904;BMP280;51401;48.882;12.598;2022-11-15T05:53:55;99070.03;;;1.92
64904;BMP280;51401;48.882;12.598;2022-11-15T05:56:21;99056.75;;;1.90
64904;BMP280;51401;48.882;12.598;2022-11-15T05:58:46;99054.75;;;1.87
64904;BMP280;51401;48.882;12.598;2022-11-15T06:01:12;99053.19;;;1.91
64904;BMP280;51401;48.882;12.598;2022-11-15T06:03:37;99054.19;;;1.90
64904;BMP280;51401;48.882;12.598;2022-11-15T06:06:02;99063.41;;;1.91
64904;BMP280;51401;48.882;12.598;2022-11-15T06:08:28;99067.53;;;1.87
64904;BMP280;51401;48.882;12.598;2022-11-15T06:10:53;99072.19;;;1.85
64904;BMP280;51401;48.882;12.598;2022-11-15T06:13:18;99081.44;;;1.81
64904;BMP280;51401;48.882;12.598;2022-11-15T06:15:43;99081.91;;;1.83
64904;BMP280;51401;48.882;12.598;2022-11-15T06:18:09;99075.22;;;1.87
64904;BMP280;51401;48.882;12.598;2022-11-15T06:20:34;99074.25;;;2.02
64904;BMP280;51401;48.882;12.598;2022-11-15T06:23:01;99074.41;;;2.10
64904;BMP280;51401;48.882;12.598;2022-11-15T06:25:28;99092.34;;;2.23
64904;BMP280;51401;48.882;12.598;2022-11-15T06:27:55;99092.22;;;2.33
64904;BMP280;51401;48.882;12.598;2022-11-15T06:30:21;99094.41;;;2.40
64904;BMP280;51401;48.882;12.598;2022-11-15T06:32:47;99101.41;;;2.52
64904;BMP280;51401;48.882;12.598;2022-11-15T06:35:13;99110.50;;;2.58
64904;BMP280;51401;48.882;12.598;2022-11-15T06:37:39;99121.91;;;2.66
64904;BMP280;51401;48.882;12.598;2022-11-15T06:40:06;99140.06;;;2.69
64904;BMP280;51401;48.882;12.598;2022-11-15T06:42:31;99149.22;;;2.70
64904;BMP280;51401;48.882;12.598;2022-11-15T06:44:56;99160.44;;;2.74
64904;BMP280;51401;48.882;12.598;2022-11-15T06:47:22;99173.72;;;2.76
64904;BMP280;51401;48.882;12.598;2022-11-15T06:49:47;99184.44;;;2.78
64904;BMP280;51401;48.882;12.598;2022-11-15T06:52:12;99190.63;;;2.77
64904;BMP280;51401;48.882;12.598;2022-11-15T06:54:38;99190.41;;;2.74
64904;BMP280;51401;48.882;12.598;2022-11-15T06:57:04;99198.50;;;2.81
64904;BMP280;51401;48.882;12.598;2022-11-15T06:59:29;99196.13;;;2.84
64904;BMP280;51401;48.882;12.598;2022-11-15T07:01:54;99207.44;;;2.96
64904;BMP280;51401;48.882;12.598;2022-11-15T07:04:20;99204.13;;;2.96
64904;BMP280;51401;48.882;12.598;2022-11-15T07:06:48;99215.63;;;2.98
64904;BMP280;51401;48.882;12.598;2022-11-15T07:09:14;99210.22;;;3.00
64904;BMP280;51401;48.882;12.598;2022-11-15T07:11:39;99216.72;;;3.11
64904;BMP280;51401;48.882;12.598;2022-11-15T07:14:05;99217.66;;;3.15
64904;BMP280;51401;48.882;12.598;2022-11-15T07:16:30;99220.13;;;3.19
64904;BMP280;51401;48.882;12.598;2022-11-15T07:18:55;99216.88;;;3.32
64904;BMP280;51401;48.882;12.598;2022-11-15T07:21:20;99214.22;;;3.37
64904;BMP280;51401;48.882;12.598;2022-11-15T07:23:46;99227.41;;;3.44
64904;BMP280;51401;48.882;12.598;2022-11-15T07:26:11;99226.00;;;3.51
64904;BMP280;51401;48.882;12.598;2022-11-15T07:28:36;99231.81;;;3.57
64904;BMP280;51401;48.882;12.598;2022-11-15T07:31:06;99235.97;;;3.66
64904;BMP280;51401;48.882;12.598;2022-11-15T07:33:32;99236.75;;;3.80
64904;BMP280;51401;48.882;12.598;2022-11-15T07:36:02;99243.97;;;3.91
64904;BMP280;51401;48.882;12.598;2022-11-15T07:38:28;99245.69;;;4.09
64904;BMP280;51401;48.882;12.598;2022-11-15T07:40:58;99252.78;;;4.25
64904;BMP280;51401;48.882;12.598;2022-11-15T07:43:24;99257.00;;;4.43
64904;BMP280;51401;48.882;12.598;2022-11-15T07:45:50;99254.16;;;4.58
64904;BMP280;51401;48.882;12.598;2022-11-15T07:48:15;99269.41;;;4.76
64904;BMP280;51401;48.882;12.598;2022-11-15T07:50:41;99270.44;;;4.97
64904;BMP280;51401;48.882;12.598;2022-11-15T07:53:08;99264.03;;;5.08
64904;BMP280;51401;48.882;12.598;2022-11-15T07:55:33;99243.34;;;5.13
64904;BMP280;51401;48.882;12.598;2022-11-15T07:58:03;99230.94;;;5.36
64904;BMP280;51401;48.882;12.598;2022-11-15T08:00:29;99213.88;;;5.49
64904;BMP280;51401;48.882;12.598;2022-11-15T08:03:01;99189.75;;;5.66
64904;BMP280;51401;48.882;12.598;2022-11-15T08:05:27;99159.03;;;5.86
64904;BMP280;51401;48.882;12.598;2022-11-15T08:07:55;99118.19;;;6.10
64904;BMP280;51401;48.882;12.598;2022-11-15T08:10:20;99061.34;;;6.32
64904;BMP280;51401;48.882;12.598;2022-11-15T08:12:46;98987.47;;;6.61
64904;BMP280;51401;48.882;12.598;2022-11-15T08:15:11;98909.81;;;6.91
64904;BMP280;51401;48.882;12.598;2022-11-15T08:17:36;98820.91;;;7.29
64904;BMP280;51401;48.882;12.598;2022-11-15T08:20:02;98726.66;;;7.67
64904;BMP280;51401;48.882;12.598;2022-11-15T08:22:28;98599.66;;;8.00
64904;BMP280;51401;48.882;12.598;2022-11-15T08:24:53;98440.00;;;8.17
64904;BMP280;51401;48.882;12.598;2022-11-15T08:27:19;98271.44;;;8.20
64904;BMP280;51401;48.882;12.598;2022-11-15T08:29:44;98145.97;;;8.60
64904;BMP280;51401;48.882;12.598;2022-11-15T08:32:10;97997.78;;;8.75
64904;BMP280;51401;48.882;12.598;2022-11-15T08:34:37;97861.81;;;9.00
64904;BMP280;51401;48.882;12.598;2022-11-15T08:37:02;97708.28;;;9.11
64904;BMP280;51401;48.882;12.598;2022-11-15T08:39:27;97596.38;;;9.24
64904;BMP280;51401;48.882;12.598;2022-11-15T08:41:53;97511.50;;;9.50
64904;BMP280;51401;48.882;12.598;2022-11-15T08:44:18;97482.31;;;9.60
64904;BMP280;51401;48.882;12.598;2022-11-15T08:46:45;97437.97;;;9.55
64904;BMP280;51401;48.882;12.598;2022-11-15T08:49:11;97398.75;;;9.77
64904;BMP280;51401;48.882;12.598;2022-11-15T08:51:36;97370.63;;;9.99
64904;BMP280;51401;48.882;12.598;2022-11-15T08:54:01;97376.13;;;10.05
64904;BMP280;51401;48.882;12.598;2022-11-15T08:56:29;97321.47;;;9.75
64904;BMP280;51401;48.882;12.598;2022-11-15T08:58:55;97280.47;;;9.57
64904;BMP280;51401;48.882;12.598;2022-11-15T09:01:20;97314.41;;;9.93
64904;BMP280;51401;48.882;12.598;2022-11-15T09:03:46;97326.94;;;10.15
64904;BMP280;51401;48.882;12.598;2022-11-15T09:06:12;97282.59;;;9.96
64904;BMP280;51401;48.882;12.598;2022-11-15T09:08:37;97270.72;;;9.98
64904;BMP280;51401;48.882;12.598;2022-11-15T09:11:04;97272.56;;;10.08
64904;BMP280;51401;48.882;12.598;2022-11-15T09:13:30;97246.00;;;9.94
64904;BMP280;51401;48.882;12.598;2022-11-15T09:15:59;97208.63;;;9.95
64904;BMP280;51401;48.882;12.598;2022-11-15T09:18:25;97223.47;;;9.77
64904;BMP280;51401;48.882;12.598;2022-11-15T09:20:51;97222.75;;;9.77
64904;BMP280;51401;48.882;12.598;2022-11-15T09:23:16;97188.00;;;9.74
64904;BMP280;51401;48.882;12.598;2022-11-15T09:25:41;97194.16;;;10.01
64904;BMP280;51401;48.882;12.598;2022-11-15T09:28:07;97211.28;;;9.78
64904;BMP280;51401;48.882;12.598;2022-11-15T09:30:33;97182.38;;;9.97
64904;BMP280;51401;48.882;12.598;2022-11-15T09:32:58;97184.13;;;10.06
64904;BMP280;51401;48.882;12.598;2022-11-15T09:35:24;97189.34;;;10.03
64904;BMP280;51401;48.882;12.598;2022-11-15T09:37:49;97172.97;;;10.23
64904;BMP280;51401;48.882;12.598;2022-11-15T09:40:15;97194.69;;;10.39
64904;BMP280;51401;48.882;12.598;2022-11-15T09:45:34;97154.34;;;10.38
64904;BMP280;51401;48.882;12.598;2022-11-15T09:50:49;97125.06;;;10.48
64904;BMP280;51401;48.882;12.598;2022-11-15T09:53:24;97095.84;;;10.44
64904;BMP280;51401;48.882;12.598;2022-11-15T09:55:59;97100.56;;;10.92
64904;BMP280;51401;48.882;12.598;2022-11-15T09:58:46;97118.69;;;11.29
64904;BMP280;51401;48.882;12.598;2022-11-15T10:01:49;97157.41;;;11.13
64904;BMP280;51401;48.882;12.598;2022-11-15T10:04:21;97126.34;;;11.06
64904;BMP280;51401;48.882;12.598;2022-11-15T10:07:16;97134.09;;;11.43
64904;BMP280;51401;48.882;12.598;2022-11-15T10:09:47;97139.81;;;11.31
64904;BMP280;51401;48.882;12.598;2022-11-15T10:12:17;97140.41;;;11.71
64904;BMP280;51401;48.882;12.598;2022-11-15T10:14:42;97127.56;;;11.31
64904;BMP280;51401;48.882;12.598;2022-11-15T10:20:45;97111.31;;;11.83
64904;BMP280;51401;48.882;12.598;2022-11-15T10:23:13;97130.19;;;11.87
64904;BMP280;51401;48.882;12.598;2022-11-15T10:25:39;97102.97;;;11.95
64904;BMP280;51401;48.882;12.598;2022-11-15T10:30:52;97063.31;;;11.91
64904;BMP280;51401;48.882;12.598;2022-11-15T10:33:36;97010.34;;;11.88
64904;BMP280;51401;48.882;12.598;2022-11-15T10:41:15;96903.31;;;11.97
64904;BMP280;51401;48.882;12.598;2022-11-15T10:43:41;96919.13;;;12.25
64904;BMP280;51401;48.882;12.598;2022-11-15T10:46:24;96949.19;;;12.45
64904;BMP280;51401;48.882;12.598;2022-11-15T10:48:50;96969.06;;;12.55
64904;BMP280;51401;48.882;12.598;2022-11-15T10:51:25;96976.59;;;12.49
64904;BMP280;51401;48.882;12.598;2022-11-15T10:53:54;96935.81;;;12.46
64904;BMP280;51401;48.882;12.598;2022-11-15T10:56:21;96965.56;;;12.80
64904;BMP280;51401;48.882;12.598;2022-11-15T10:58:54;97007.50;;;12.82
64904;BMP280;51401;48.882;12.598;2022-11-15T11:01:25;97007.31;;;12.93
64904;BMP280;51401;48.882;12.598;2022-11-15T11:04:02;96966.47;;;13.09
64904;BMP280;51401;48.882;12.598;2022-11-15T11:06:28;96985.00;;;13.11
64904;BMP280;51401;48.882;12.598;2022-11-15T11:11:24;96915.94;;;13.06
64904;BMP280;51401;48.882;12.598;2022-11-15T11:13:49;96952.00;;;13.55
64904;BMP280;51401;48.882;12.598;2022-11-15T11:19:03;96945.47;;;13.79
64904;BMP280;51401;48.882;12.598;2022-11-15T11:24:44;96899.72;;;13.78
64904;BMP280;51401;48.882;12.598;2022-11-15T11:30:22;96937.50;;;13.86
64904;BMP280;51401;48.882;12.598;2022-11-15T11:33:01;96889.38;;;13.74
64904;BMP280;51401;48.882;12.598;2022-11-15T11:35:52;96849.31;;;13.84
64904;BMP280;51401;48.882;12.598;2022-11-15T11:41:13;96914.38;;;14.00
64904;BMP280;51401;48.882;12.598;2022-11-15T11:43:51;96922.72;;;14.23
64904;BMP280;51401;48.882;12.598;2022-11-15T11:49:10;96860.72;;;14.02
64904;BMP280;51401;48.882;12.598;2022-11-15T11:51:42;96844.50;;;14.47
64904;BMP280;51401;48.882;12.598;2022-11-15T11:54:12;96856.81;;;14.84
64904;BMP280;51401;48.882;12.598;2022-11-15T11:56:40;96863.41;;;14.64
64904;BMP280;51401;48.882;12.598;2022-11-15T11:59:25;96861.63;;;14.48
64904;BMP280;51401;48.882;12.598;2022-11-15T12:01:54;96819.47;;;14.62
64904;BMP280;51401;48.882;12.598;2022-11-15T12:04:35;96821.53;;;14.67
64904;BMP280;51401;48.882;12.598;2022-11-15T12:07:03;96766.38;;;14.44
64904;BMP280;51401;48.882;12.598;2022-11-15T12:09:41;96744.56;;;14.50
64904;BMP280;51401;48.882;12.598;2022-11-15T12:12:27;96746.03;;;14.51
64904;BMP280;51401;48.882;12.598;2022-11-15T12:14:58;96735.25;;;14.74
64904;BMP280;51401;48.882;12.598;2022-11-15T12:17:28;96758.13;;;14.70
64904;BMP280;51401;48.882;12.598;2022-11-15T12:20:03;96710.84;;;14.68
64904;BMP280;51401;48.882;12.598;2022-11-15T12:22:54;96776.84;;;14.90
64904;BMP280;51401;48.882;12.598;2022-11-15T12:25:31;96811.34;;;15.18
64904;BMP280;51401;48.882;12.598;2022-11-15T12:28:07;96783.88;;;14.68
64904;BMP280;51401;48.882;12.598;2022-11-15T12:30:43;96738.19;;;14.76
64904;BMP280;51401;48.882;12.598;2022-11-15T12:33:29;96735.09;;;14.90
64904;BMP280;51401;48.882;12.598;2022-11-15T12:36:03;96733.25;;;14.78
64904;BMP280;51401;48.882;12.598;2022-11-15T12:41:22;96716.59;;;14.63
64904;BMP280;51401;48.882;12.598;2022-11-15T12:43:48;96680.44;;;14.41
64904;BMP280;51401;48.882;12.598;2022-11-15T12:46:58;96674.69;;;14.45
64904;BMP280;51401;48.882;12.598;2022-11-15T13:02:40;96691.81;;;14.46
64904;BMP280;51401;48.882;12.598;2022-11-15T13:17:54;96725.03;;;15.00
64904;BMP280;51401;48.882;12.598;2022-11-15T13:20:31;96708.53;;;15.03
64904;BMP280;51401;48.882;12.598;2022-11-15T13:23:11;96708.94;;;15.14
64904;BMP280;51401;48.882;12.598;2022-11-15T13:26:03;96741.63;;;15.28
64904;BMP280;51401;48.882;12.598;2022-11-15T13:28:38;96762.34;;;15.43
64904;BMP280;51401;48.882;12.598;2022-11-15T13:31:28;96768.63;;;15.46
64904;BMP280;51401;48.882;12.598;2022-11-15T13:33:55;96775.56;;;15.49
64904;BMP280;51401;48.882;12.598;2022-11-15T13:36:24;96722.00;;;15.23
64904;BMP280;51401;48.882;12.598;2022-11-15T13:38:56;96724.28;;;15.12
64904;BMP280;51401;48.882;12.598;2022-11-15T13:41:25;96713.88;;;15.21
64904;BMP280;51401;48.882;12.598;2022-11-15T13:43:53;96721.50;;;15.16
64904;BMP280;51401;48.882;12.598;2022-11-15T13:46:32;96730.63;;;15.32
64904;BMP280;51401;48.882;12.598;2022-11-15T13:49:19;96681.44;;;15.10
64904;BMP280;51401;48.882;12.598;2022-11-15T13:51:48;96631.25;;;14.85
64904;BMP280;51401;48.882;12.598;2022-11-15T13:56:53;96618.75;;;14.59
64904;BMP280;51401;48.882;12.598;2022-11-15T13:59:26;96588.41;;;14.52
64904;BMP280;51401;48.882;12.598;2022-11-15T14:01:53;96553.56;;;14.25
64904;BMP280;51401;48.882;12.598;2022-11-15T14:04:22;96536.38;;;14.15
64904;BMP280;51401;48.882;12.598;2022-11-15T14:06:51;96525.34;;;14.12
64904;BMP280;51401;48.882;12.598;2022-11-15T14:09:29;96501.09;;;14.02
64904;BMP280;51401;48.882;12.598;2022-11-15T14:11:57;96489.44;;;13.94
64904;BMP280;51401;48.882;12.598;2022-11-15T14:14:25;96478.41;;;14.03
64904;BMP280;51401;48.882;12.598;2022-11-15T14:16:58;96473.69;;;13.98
64904;BMP280;51401;48.882;12.598;2022-11-15T14:22:09;96481.47;;;13.89
64904;BMP280;51401;48.882;12.598;2022-11-15T14:24:35;96455.41;;;13.77
64904;BMP280;51401;48.882;12.598;2022-11-15T14:27:27;96454.31;;;13.65
64904;BMP280;51401;48.882;12.598;2022-11-15T14:29:53;96409.59;;;13.33
64904;BMP280;51401;48.882;12.598;2022-11-15T14:32:29;96365.59;;;13.27
64904;BMP280;51401;48.882;12.598;2022-11-15T14:34:59;96334.16;;;13.21
64904;BMP280;51401;48.882;12.598;2022-11-15T14:37:30;96308.81;;;13.13
64904;BMP280;51401;48.882;12.598;2022-11-15T14:40:01;96269.00;;;12.91
64904;BMP280;51401;48.882;12.598;2022-11-15T14:42:27;96199.25;;;12.65
64904;BMP280;51401;48.882;12.598;2022-11-15T14:44:53;96133.59;;;12.52
64904;BMP280;51401;48.882;12.598;2022-11-15T14:47:18;96108.56;;;12.34
64904;BMP280;51401;48.882;12.598;2022-11-15T14:49:44;96069.84;;;12.14
64904;BMP280;51401;48.882;12.598;2022-11-15T14:54:50;96040.28;;;12.00
64904;BMP280;51401;48.882;12.598;2022-11-15T14:57:19;96038.88;;;11.86
64904;BMP280;51401;48.882;12.598;2022-11-15T14:59:44;96030.25;;;11.89
64904;BMP280;51401;48.882;12.598;2022-11-15T15:02:22;96051.00;;;11.77
64904;BMP280;51401;48.882;12.598;2022-11-15T15:04:48;96038.41;;;11.54
64904;BMP280;51401;48.882;12.598;2022-11-15T15:07:14;96022.00;;;11.33
64904;BMP280;51401;48.882;12.598;2022-11-15T15:09:40;96005.66;;;11.20
64904;BMP280;51401;48.882;12.598;2022-11-15T15:12:15;95984.06;;;10.98
64904;BMP280;51401;48.882;12.598;2022-11-15T15:14:41;95954.53;;;10.84
64904;BMP280;51401;48.882;12.598;2022-11-15T15:17:07;95927.88;;;10.71
64904;BMP280;51401;48.882;12.598;2022-11-15T15:19:32;95925.28;;;10.58
64904;BMP280;51401;48.882;12.598;2022-11-15T15:21:57;95927.94;;;10.43
64904;BMP280;51401;48.882;12.598;2022-11-15T15:24:22;95919.50;;;10.27
64904;BMP280;51401;48.882;12.598;2022-11-15T15:26:48;95932.50;;;10.11
64904;BMP280;51401;48.882;12.598;2022-11-15T15:29:13;95938.72;;;9.97
64904;BMP280;51401;48.882;12.598;2022-11-15T15:31:38;95937.53;;;9.86
64904;BMP280;51401;48.882;12.598;2022-11-15T15:34:04;95952.75;;;9.68
64904;BMP280;51401;48.882;12.598;2022-11-15T15:36:29;95942.66;;;9.58
64904;BMP280;51401;48.882;12.598;2022-11-15T15:38:54;95950.00;;;9.44
64904;BMP280;51401;48.882;12.598;2022-11-15T15:41:20;95967.59;;;9.33
64904;BMP280;51401;48.882;12.598;2022-11-15T15:43:46;95976.06;;;9.34
64904;BMP280;51401;48.882;12.598;2022-11-15T15:46:15;95979.38;;;9.34
64904;BMP280;51401;48.882;12.598;2022-11-15T15:48:41;96006.19;;;9.24
64904;BMP280;51401;48.882;12.598;2022-11-15T15:51:06;96020.47;;;9.13